»·PEaware :: N604S KTEX-KBZN

N604S :: KTEX-KBZN

FLIGHT INFORMATION

Flight Status: Arrived
Operator: Privately registered:
United States
More flights under this callsign
Pilot: Andy P. (22680)
Aircraft: GATES LEARJET LEARJET 35/36
(LJ35)
More flights by this aircraft type
Origin: KTEX Telluride Regl
United States
Destination: KBZN Gallatin
United States
More flights between these airports :: More routes between these airports
Route: ETL VEL BPI LOSST GARNT
File this flight plan on PilotEdge
Remarks:
Altitude:
(Current/Filed)
34,000ft
Speed:
(Current/Filed)
465kts
Departed: 10-Nov-23 03:07 PM
Arrived: 10-Nov-23 04:25 PM
Distance/Time
Traveled:
491nm/1:18
Distance/Time
To Go:
Arrived

Flight Plot

Page will automatically refresh every two minutes.

Flight plan parsing failed; only flown route is shown


Map Options




Map Legend


Flown Route
Filed Route
Departure Airport
Arrival Airport
Navaid (VOR, NDB)
Fix

Horizontal Profiles

Position Reports

Time Latitude Longitude Heading Altitude Ground
Speed
10-Nov-23 14:34 37.954146 -107.902182 283 9081ft 0kts
10-Nov-23 14:35 37.954146 -107.902182 283 9081ft 0kts
10-Nov-23 14:36 37.954146 -107.902182 283 9081ft 0kts
10-Nov-23 14:37 37.954146 -107.902182 283 9081ft 0kts
10-Nov-23 14:38 37.954146 -107.902182 283 9081ft 0kts
10-Nov-23 14:39 37.954146 -107.902182 283 9081ft 0kts
10-Nov-23 14:40 37.954146 -107.902182 283 9081ft 0kts
10-Nov-23 14:41 37.954146 -107.902182 283 9081ft 0kts
10-Nov-23 14:42 37.954146 -107.902182 283 9081ft 0kts
10-Nov-23 14:43 37.954146 -107.902182 283 9081ft 0kts
10-Nov-23 14:44 37.954146 -107.902182 283 9081ft 0kts
10-Nov-23 14:45 37.954146 -107.902182 283 9081ft 0kts
10-Nov-23 14:46 37.954146 -107.902182 283 9081ft 0kts
10-Nov-23 14:47 37.954146 -107.902182 283 9081ft 0kts
10-Nov-23 14:48 37.954146 -107.902182 283 9081ft 0kts
10-Nov-23 14:49 37.954146 -107.902182 283 9081ft 0kts
10-Nov-23 14:50 37.954146 -107.902182 283 9081ft 0kts
10-Nov-23 14:51 37.954146 -107.902182 283 9081ft 0kts
10-Nov-23 14:52 37.954146 -107.902182 283 9081ft 0kts
10-Nov-23 14:53 37.954146 -107.902182 283 9081ft 0kts
10-Nov-23 14:54 37.954146 -107.902182 283 9081ft 0kts
10-Nov-23 14:55 37.954146 -107.902182 283 9081ft 0kts
10-Nov-23 14:56 37.954146 -107.902182 283 9081ft 0kts
10-Nov-23 14:57 37.954146 -107.902182 283 9081ft 0kts
10-Nov-23 14:58 37.954146 -107.902182 283 9081ft 0kts
10-Nov-23 14:59 37.954146 -107.902182 283 9081ft 0kts
10-Nov-23 15:00 37.954146 -107.902183 283 9081ft 0kts
10-Nov-23 15:01 37.953530 -107.901650 108 9081ft 10kts
10-Nov-23 15:02 37.953095 -107.898829 126 9081ft 0kts
10-Nov-23 15:03 37.953094 -107.898827 126 9081ft 0kts
10-Nov-23 15:04 37.953060 -107.898772 128 9081ft 1kts
10-Nov-23 15:05 37.951949 -107.896709 194 9081ft 5kts
10-Nov-23 15:06 37.956939 -107.923041 284 9345ft 190kts
10-Nov-23 15:07 37.977829 -108.006492 288 11797ft 292kts
10-Nov-23 15:08 38.003131 -108.107348 286 15118ft 308kts
10-Nov-23 15:09 38.029316 -108.212965 290 17868ft 320kts
10-Nov-23 15:10 38.094574 -108.286280 338 20183ft 333kts
10-Nov-23 15:11 38.182133 -108.330967 338 23133ft 345kts
10-Nov-23 15:12 38.272900 -108.377472 338 25660ft 357kts
10-Nov-23 15:13 38.366035 -108.425295 337 27858ft 366kts
10-Nov-23 15:14 38.462062 -108.474760 336 29618ft 381kts
10-Nov-23 15:15 38.563737 -108.527309 336 30726ft 404kts
10-Nov-23 15:16 38.669470 -108.582094 336 31960ft 413kts
10-Nov-23 15:17 38.775255 -108.637064 335 33485ft 408kts
10-Nov-23 15:18 38.881506 -108.692522 335 34212ft 421kts
10-Nov-23 15:19 38.993254 -108.751040 334 34233ft 442kts
10-Nov-23 15:20 39.109146 -108.811878 334 34238ft 456kts
10-Nov-23 15:21 39.226761 -108.873833 334 34255ft 457kts
10-Nov-23 15:22 39.344704 -108.936199 334 34256ft 457kts
10-Nov-23 15:23 39.462010 -108.998472 334 34256ft 457kts
10-Nov-23 15:24 39.579653 -109.061154 333 34255ft 457kts
10-Nov-23 15:25 39.697274 -109.124060 333 34244ft 458kts
10-Nov-23 15:26 39.815015 -109.187262 333 34237ft 458kts
10-Nov-23 15:27 39.932830 -109.250739 333 34234ft 458kts
10-Nov-23 15:28 40.050869 -109.314571 332 34233ft 459kts
10-Nov-23 15:29 40.168832 -109.378615 332 34223ft 459kts
10-Nov-23 15:30 40.286451 -109.442709 332 34223ft 459kts
10-Nov-23 15:31 40.407224 -109.499801 341 34223ft 465kts
10-Nov-23 15:32 40.534109 -109.535164 343 34223ft 466kts
10-Nov-23 15:33 40.661157 -109.569862 343 34224ft 466kts
10-Nov-23 15:34 40.788111 -109.604558 343 34224ft 466kts
10-Nov-23 15:35 40.914953 -109.639354 343 34226ft 466kts
10-Nov-23 15:36 41.041913 -109.674322 343 34226ft 465kts
10-Nov-23 15:37 41.168330 -109.709275 342 34226ft 465kts
10-Nov-23 15:38 41.294966 -109.744431 342 34226ft 464kts
10-Nov-23 15:39 41.421205 -109.779614 342 34229ft 464kts
10-Nov-23 15:40 41.547585 -109.814977 342 34229ft 463kts
10-Nov-23 15:41 41.673554 -109.850367 342 34241ft 463kts
10-Nov-23 15:42 41.799931 -109.886014 342 34241ft 462kts
10-Nov-23 15:43 41.925928 -109.921707 342 34213ft 463kts
10-Nov-23 15:44 42.051593 -109.957434 342 34212ft 462kts
10-Nov-23 15:45 42.177825 -109.993477 342 34213ft 462kts
10-Nov-23 15:46 42.303539 -110.029515 342 34213ft 462kts
10-Nov-23 15:47 42.429460 -110.065765 342 34209ft 462kts
10-Nov-23 15:48 42.555195 -110.102104 342 34203ft 462kts
10-Nov-23 15:49 42.680426 -110.140610 340 34203ft 461kts
10-Nov-23 15:50 42.805280 -110.180589 340 34203ft 461kts
10-Nov-23 15:51 42.930095 -110.220384 340 34203ft 461kts
10-Nov-23 15:52 43.055466 -110.260477 340 34196ft 461kts
10-Nov-23 15:53 43.180191 -110.300530 340 34194ft 461kts
10-Nov-23 15:54 43.304966 -110.340770 340 34193ft 461kts
10-Nov-23 15:55 43.430274 -110.381351 340 34193ft 461kts
10-Nov-23 15:56 43.553867 -110.421548 340 34193ft 461kts
10-Nov-23 15:57 43.678735 -110.462334 340 34193ft 461kts
10-Nov-23 15:58 43.803575 -110.503309 340 34193ft 461kts
10-Nov-23 15:59 43.926078 -110.543511 339 33100ft 443kts
10-Nov-23 16:00 44.046369 -110.583440 339 31301ft 445kts
10-Nov-23 16:01 44.167508 -110.623756 339 29508ft 452kts
10-Nov-23 16:02 44.291113 -110.665025 340 27712ft 459kts
10-Nov-23 16:03 44.415948 -110.706850 341 25924ft 462kts
10-Nov-23 16:04 44.539718 -110.748385 341 24121ft 453kts
10-Nov-23 16:05 44.660662 -110.789279 342 22343ft 453kts
10-Nov-23 16:06 44.781798 -110.830334 342 20542ft 436kts
10-Nov-23 16:07 44.898191 -110.870049 342 18755ft 427kts
10-Nov-23 16:08 45.013332 -110.909369 342 17042ft 422kts
10-Nov-23 16:09 45.122893 -110.947530 338 15337ft 394kts
10-Nov-23 16:10 45.215190 -111.022534 324 14061ft 381kts
10-Nov-23 16:11 45.306081 -111.102009 325 14026ft 384kts
10-Nov-23 16:12 45.398965 -111.182007 325 14037ft 397kts
10-Nov-23 16:13 45.490014 -111.259777 325 13901ft 376kts
10-Nov-23 16:14 45.572767 -111.328932 325 12223ft 316kts
10-Nov-23 16:15 45.643909 -111.388018 325 10512ft 280kts
10-Nov-23 16:16 45.708620 -111.444798 325 8803ft 269kts
10-Nov-23 16:17 45.774396 -111.483452 17 7148ft 255kts
10-Nov-23 16:18 45.823534 -111.430183 41 6987ft 191kts
10-Nov-23 16:19 45.852791 -111.370636 76 6704ft 189kts
10-Nov-23 16:20 45.854460 -111.295669 97 6279ft 188kts
10-Nov-23 16:21 45.837283 -111.232030 138 5374ft 159kts
10-Nov-23 16:22 45.805579 -111.190826 140 4966ft 150kts
10-Nov-23 16:23 45.779677 -111.154816 135 4474ft 63kts
10-Nov-23 16:24 45.774210 -111.150617 227 4474ft 11kts
10-Nov-23 16:25 45.773283 -111.152498 138 4474ft 0kts
10-Nov-23 16:26 45.773283 -111.152498 138 4474ft 0kts
10-Nov-23 16:27 45.773283 -111.152498 138 4474ft 0kts
10-Nov-23 16:28 45.773283 -111.152498 138 4474ft 0kts
10-Nov-23 16:29 45.773283 -111.152498 138 4474ft 0kts
10-Nov-23 16:30 45.773283 -111.152498 138 4474ft 0kts
10-Nov-23 16:31 45.773283 -111.152498 138 4474ft 0kts
10-Nov-23 16:32 45.773283 -111.152498 138 4474ft 0kts
10-Nov-23 16:33 45.773283 -111.152498 138 4474ft 0kts
10-Nov-23 16:34 45.773283 -111.152498 138 4474ft 0kts
10-Nov-23 16:35 45.773283 -111.152498 138 4474ft 0kts
10-Nov-23 16:36 45.773283 -111.152498 138 4474ft 0kts
10-Nov-23 16:37 45.773283 -111.152498 138 4474ft 0kts
10-Nov-23 16:38 45.773283 -111.152498 138 4474ft 0kts

Navigation Log

Ident Type
Flight plan parsing failed, navigation log unavailable